createdAt,value
2023-02-21T00:00:34.208Z,16.37
2023-02-21T00:03:19.728Z,16.75
2023-02-21T00:06:04.992Z,15.20
2023-02-21T00:08:50.503Z,15.55
2023-02-21T00:11:36.030Z,16.80
2023-02-21T00:14:21.541Z,16.20
2023-02-21T00:17:07.077Z,16.15
2023-02-21T00:19:52.464Z,16.15
2023-02-21T00:22:38.007Z,16.48
2023-02-21T00:25:23.580Z,16.42
2023-02-21T00:28:09.312Z,19.20
2023-02-21T00:30:54.917Z,17.23
2023-02-21T00:33:40.393Z,16.98
2023-02-21T00:36:26.295Z,15.45
2023-02-21T00:39:11.638Z,16.33
2023-02-21T00:41:56.836Z,16.63
2023-02-21T00:44:42.358Z,16.17
2023-02-21T00:47:27.446Z,18.10
2023-02-21T00:50:13.746Z,16.38
2023-02-21T00:52:59.211Z,18.45
2023-02-21T00:55:44.492Z,17.80
2023-02-21T00:58:29.749Z,18.45
2023-02-21T01:01:16.005Z,17.25
2023-02-21T01:04:01.518Z,16.73
2023-02-21T01:06:46.669Z,17.85
2023-02-21T01:09:32.496Z,17.17
2023-02-21T01:12:18.087Z,18.35
2023-02-21T01:15:03.265Z,18.40
2023-02-21T01:17:48.720Z,16.25
2023-02-21T01:20:33.979Z,19.38
2023-02-21T01:23:19.455Z,16.70
2023-02-21T01:26:04.850Z,18.00
2023-02-21T01:28:50.164Z,19.48
2023-02-21T01:31:37.489Z,19.02
2023-02-21T01:34:23.256Z,19.38
2023-02-21T01:37:08.469Z,18.07
2023-02-21T01:39:53.870Z,18.85
2023-02-21T01:42:39.679Z,18.63
2023-02-21T01:45:40.153Z,19.08
2023-02-21T01:48:32.876Z,18.90
2023-02-21T01:51:20.033Z,18.27
2023-02-21T01:54:05.575Z,19.17
2023-02-21T01:56:51.619Z,19.17
2023-02-21T01:59:40.966Z,18.98
2023-02-21T02:02:40.267Z,20.10
2023-02-21T02:05:28.549Z,19.57
2023-02-21T02:08:14.400Z,18.88
2023-02-21T02:11:01.160Z,19.98
2023-02-21T02:14:12.853Z,19.95
2023-02-21T02:16:39.500Z,19.63
2023-02-21T02:19:43.549Z,19.17
2023-02-21T02:22:52.729Z,19.52
2023-02-21T02:25:34.177Z,19.17
2023-02-21T02:28:33.019Z,22.25
2023-02-21T02:31:27.471Z,19.83
2023-02-21T02:34:42.300Z,19.23
2023-02-21T02:37:31.214Z,18.70
2023-02-21T02:40:02.637Z,20.15
2023-02-21T02:43:05.045Z,21.48
2023-02-21T02:45:48.920Z,21.60
2023-02-21T02:48:28.315Z,21.00
2023-02-21T02:50:55.913Z,21.20
2023-02-21T02:53:27.945Z,21.60
2023-02-21T02:55:57.598Z,21.23
2023-02-21T02:58:29.775Z,21.52
2023-02-21T03:01:16.940Z,20.10
2023-02-21T03:03:59.712Z,20.98
2023-02-21T03:06:42.146Z,21.48
2023-02-21T03:09:13.741Z,21.08
2023-02-21T03:12:03.535Z,22.08
2023-02-21T03:14:50.454Z,22.43
2023-02-21T03:17:20.380Z,21.20
2023-02-21T03:19:49.661Z,22.25
2023-02-21T03:22:21.265Z,23.02
2023-02-21T03:24:50.320Z,24.27
2023-02-21T03:27:19.590Z,22.17
2023-02-21T03:29:55.169Z,23.65
2023-02-21T03:32:25.782Z,24.30
2023-02-21T03:34:53.886Z,22.73
2023-02-21T03:37:35.425Z,24.23
2023-02-21T03:40:05.075Z,23.50
2023-02-21T03:42:33.899Z,25.35
2023-02-21T03:45:01.289Z,23.80
2023-02-21T03:47:28.161Z,23.50
2023-02-21T03:49:55.045Z,24.45
2023-02-21T03:52:21.957Z,25.27
2023-02-21T03:54:50.092Z,25.70
2023-02-21T03:57:20.096Z,24.85
2023-02-21T03:59:48.044Z,24.27
2023-02-21T04:02:15.520Z,24.20
2023-02-21T04:04:42.879Z,26.00
2023-02-21T04:07:17.789Z,24.13
2023-02-21T04:09:44.831Z,24.05
2023-02-21T04:12:16.439Z,26.80
2023-02-21T04:14:43.632Z,25.95
2023-02-21T04:17:10.408Z,24.07
2023-02-21T04:19:37.338Z,25.05
2023-02-21T04:22:05.434Z,23.20
2023-02-21T04:24:32.702Z,23.50
2023-02-21T04:26:59.515Z,26.38
2023-02-21T04:29:28.307Z,25.40
2023-02-21T04:31:55.664Z,22.50
2023-02-21T04:34:23.179Z,24.27
2023-02-21T04:36:50.282Z,24.75
2023-02-21T04:39:17.548Z,24.33
2023-02-21T04:41:44.427Z,25.60
2023-02-21T04:44:11.974Z,26.13
2023-02-21T04:46:38.713Z,24.67
2023-02-21T04:49:05.700Z,24.60
2023-02-21T04:51:32.443Z,23.83
2023-02-21T04:53:59.254Z,23.87
2023-02-21T04:56:27.952Z,25.70
2023-02-21T04:58:55.540Z,23.95
2023-02-21T05:01:23.261Z,26.48
2023-02-21T05:03:50.132Z,25.83
2023-02-21T05:06:19.105Z,25.87
2023-02-21T05:08:45.796Z,24.77
2023-02-21T05:11:12.730Z,24.83
2023-02-21T05:13:39.939Z,24.95
2023-02-21T05:16:06.996Z,25.17
2023-02-21T05:18:34.598Z,26.10
2023-02-21T05:21:03.214Z,25.10
2023-02-21T05:23:36.717Z,24.83
2023-02-21T05:26:09.040Z,23.75
2023-02-21T05:28:36.910Z,25.73
2023-02-21T05:31:04.332Z,25.77
2023-02-21T05:33:31.393Z,26.25
2023-02-21T05:35:58.156Z,26.48
2023-02-21T05:38:25.901Z,23.55
2023-02-21T05:40:53.047Z,27.13
2023-02-21T05:43:19.860Z,24.67
2023-02-21T05:45:46.596Z,27.35
2023-02-21T05:48:13.394Z,25.85
2023-02-21T05:50:40.154Z,25.55
2023-02-21T05:53:09.844Z,26.92
2023-02-21T05:55:37.292Z,27.67
2023-02-21T05:58:04.216Z,26.27
2023-02-21T06:00:31.101Z,27.27
2023-02-21T06:03:11.061Z,26.25
2023-02-21T06:05:38.027Z,26.25
2023-02-21T06:08:04.996Z,28.43
2023-02-21T06:10:31.737Z,25.70
2023-02-21T06:12:58.441Z,25.65
2023-02-21T06:15:25.199Z,28.13
2023-02-21T06:17:52.107Z,25.63
2023-02-21T06:20:19.157Z,27.97
2023-02-21T06:22:47.313Z,26.95
2023-02-21T06:25:14.070Z,27.63
2023-02-21T06:27:40.830Z,28.08
2023-02-21T06:30:08.334Z,26.00
2023-02-21T06:32:35.115Z,27.07
2023-02-21T06:35:02.305Z,26.92
2023-02-21T06:37:29.383Z,25.80
2023-02-21T06:39:56.262Z,25.67
2023-02-21T06:42:23.010Z,26.27
2023-02-21T06:44:50.510Z,27.13
2023-02-21T06:47:18.187Z,27.77
2023-02-21T06:49:45.030Z,28.45
2023-02-21T06:52:12.165Z,26.08
2023-02-21T06:54:39.017Z,28.20
2023-02-21T06:57:05.880Z,28.30
2023-02-21T06:59:32.678Z,27.60
2023-02-21T07:01:59.903Z,28.48
2023-02-21T07:04:26.765Z,26.75
2023-02-21T07:06:53.587Z,27.98
2023-02-21T07:09:20.930Z,28.67
2023-02-21T07:11:47.764Z,27.40
2023-02-21T07:14:14.815Z,30.13
2023-02-21T07:16:41.708Z,28.73
2023-02-21T07:19:08.601Z,29.05
2023-02-21T07:21:35.300Z,29.27
2023-02-21T07:24:02.078Z,29.73
2023-02-21T07:26:28.790Z,30.80
2023-02-21T07:28:55.614Z,29.65
2023-02-21T07:31:22.869Z,29.15
2023-02-21T07:33:49.844Z,28.63
2023-02-21T07:36:16.933Z,28.45
2023-02-21T07:38:43.753Z,27.42
2023-02-21T07:41:10.572Z,29.08
2023-02-21T07:43:39.206Z,31.48
2023-02-21T07:46:13.488Z,30.17
2023-02-21T07:48:40.263Z,29.23
2023-02-21T07:51:08.316Z,28.20
2023-02-21T07:53:35.624Z,30.67
2023-02-21T07:56:03.607Z,29.80
2023-02-21T07:58:31.209Z,30.10
2023-02-21T08:00:57.904Z,31.20
2023-02-21T08:03:24.657Z,29.15
2023-02-21T08:05:51.427Z,30.25
2023-02-21T08:08:18.196Z,30.75
2023-02-21T08:10:44.956Z,29.40
2023-02-21T08:13:11.719Z,29.73
2023-02-21T08:15:38.500Z,30.80
2023-02-21T08:18:05.363Z,31.42
2023-02-21T08:20:32.150Z,27.75
2023-02-21T08:22:58.954Z,34.23
2023-02-21T08:25:25.713Z,30.02
2023-02-21T08:27:55.129Z,32.55
2023-02-21T08:30:22.238Z,30.35
2023-02-21T08:32:49.588Z,30.85
2023-02-21T08:35:17.919Z,29.20
2023-02-21T08:37:46.362Z,31.73
2023-02-21T08:40:14.736Z,29.75
2023-02-21T08:42:41.966Z,28.00
2023-02-21T08:45:15.815Z,31.63
2023-02-21T08:47:42.692Z,28.83
2023-02-21T08:50:09.466Z,28.85
2023-02-21T08:52:36.149Z,27.60
2023-02-21T08:55:02.891Z,28.08
2023-02-21T08:57:29.638Z,26.63
2023-02-21T08:59:56.538Z,26.13
2023-02-21T09:02:33.676Z,25.00
2023-02-21T09:05:00.354Z,26.40
2023-02-21T09:07:28.698Z,25.52
2023-02-21T09:09:55.455Z,23.80
2023-02-21T09:12:22.174Z,23.33
2023-02-21T09:14:48.864Z,22.92
2023-02-21T09:17:15.737Z,22.48
2023-02-21T09:19:42.510Z,24.02
2023-02-21T09:22:10.588Z,24.15
2023-02-21T09:24:38.211Z,24.13
2023-02-21T09:27:05.968Z,21.30
2023-02-21T09:29:45.501Z,22.23
2023-02-21T09:32:14.129Z,23.23
2023-02-21T09:34:41.464Z,21.02
2023-02-21T09:37:08.547Z,22.17
2023-02-21T09:39:38.118Z,23.13
2023-02-21T09:42:05.124Z,22.67
2023-02-21T09:44:31.996Z,21.60
2023-02-21T09:47:02.052Z,22.27
2023-02-21T09:49:35.433Z,22.80
2023-02-21T09:52:03.120Z,23.00
2023-02-21T09:54:40.628Z,21.42
2023-02-21T09:57:13.626Z,22.75
2023-02-21T09:59:40.518Z,22.08
2023-02-21T10:02:10.281Z,24.30
2023-02-21T10:04:46.872Z,22.88
2023-02-21T10:07:26.528Z,20.98
2023-02-21T10:10:03.054Z,19.70
2023-02-21T10:12:56.414Z,20.92
2023-02-21T10:15:28.862Z,20.67
2023-02-21T10:17:59.886Z,19.85
2023-02-21T10:20:38.335Z,21.58
2023-02-21T10:23:16.089Z,20.67
2023-02-21T10:25:46.935Z,20.95
2023-02-21T10:28:23.569Z,22.47
2023-02-21T10:30:55.065Z,19.65
2023-02-21T10:33:21.891Z,21.85
2023-02-21T10:35:48.575Z,22.00
2023-02-21T10:38:23.592Z,21.45
2023-02-21T10:40:59.459Z,20.70
2023-02-21T10:43:37.696Z,20.73
2023-02-21T10:46:10.431Z,22.55
2023-02-21T10:48:38.794Z,21.15
2023-02-21T10:51:16.096Z,20.42
2023-02-21T10:53:47.560Z,22.40
2023-02-21T10:56:19.738Z,21.50
2023-02-21T10:58:53.695Z,20.92
2023-02-21T11:01:26.778Z,20.92
2023-02-21T11:03:57.189Z,22.48
2023-02-21T11:06:32.005Z,22.63
2023-02-21T11:08:59.807Z,21.52
2023-02-21T11:11:41.734Z,19.98
2023-02-21T11:14:22.449Z,21.83
2023-02-21T11:17:20.082Z,20.58
2023-02-21T11:19:53.682Z,22.20
2023-02-21T11:22:39.272Z,23.00
2023-02-21T11:25:23.614Z,23.88
2023-02-21T11:28:04.038Z,23.38
2023-02-21T11:30:34.294Z,21.50
2023-02-21T11:33:01.822Z,22.83
2023-02-21T11:35:44.460Z,21.45
2023-02-21T11:38:38.081Z,21.17
2023-02-21T11:41:17.903Z,24.33
2023-02-21T11:43:51.054Z,23.88
2023-02-21T11:46:32.617Z,24.33
2023-02-21T11:49:33.420Z,24.27
2023-02-21T11:52:06.469Z,22.23
2023-02-21T11:54:33.691Z,22.77
2023-02-21T11:57:19.461Z,23.52
2023-02-21T12:00:16.200Z,22.23
2023-02-21T12:03:04.531Z,23.65
2023-02-21T12:05:47.451Z,23.20
2023-02-21T12:08:37.948Z,21.75
2023-02-21T12:11:17.273Z,23.95
2023-02-21T12:14:08.057Z,23.87
2023-02-21T12:16:43.098Z,22.48
2023-02-21T12:19:30.614Z,23.27
2023-02-21T12:22:18.691Z,22.52
2023-02-21T12:25:20.587Z,22.67
2023-02-21T12:28:13.795Z,23.93
2023-02-21T12:31:10.288Z,22.63
2023-02-21T12:33:54.591Z,23.52
2023-02-21T12:36:40.344Z,24.08
2023-02-21T12:39:25.198Z,23.58
2023-02-21T12:42:06.190Z,23.97
2023-02-21T12:44:35.957Z,22.65
2023-02-21T12:47:18.102Z,21.17
2023-02-21T12:49:47.595Z,24.17
2023-02-21T12:52:21.779Z,22.38
2023-02-21T12:55:15.900Z,23.23
2023-02-21T12:57:51.528Z,22.85
2023-02-21T13:00:23.038Z,21.85
2023-02-21T13:03:01.701Z,21.92
2023-02-21T13:05:46.490Z,19.98
2023-02-21T13:08:31.646Z,21.53
2023-02-21T13:11:24.708Z,20.55
2023-02-21T13:13:51.483Z,18.35
2023-02-21T13:16:19.933Z,18.02
2023-02-21T13:18:59.127Z,16.80
2023-02-21T13:21:37.513Z,16.00
2023-02-21T13:24:32.683Z,15.60
2023-02-21T13:27:30.846Z,13.90
2023-02-21T13:30:32.774Z,13.43
2023-02-21T13:33:00.967Z,11.63
2023-02-21T13:35:35.492Z,10.67
2023-02-21T13:38:06.879Z,11.60
2023-02-21T13:40:50.899Z,11.20
2023-02-21T13:43:49.143Z,11.05
2023-02-21T13:46:31.341Z,9.68
2023-02-21T13:49:35.613Z,9.33
2023-02-21T13:52:23.494Z,9.23
2023-02-21T13:55:20.206Z,8.77
2023-02-21T13:58:08.454Z,8.35
2023-02-21T14:00:35.193Z,8.55
2023-02-21T14:03:09.701Z,7.73
2023-02-21T14:05:51.343Z,9.63
2023-02-21T14:08:47.597Z,8.13
2023-02-21T14:11:21.235Z,8.48
2023-02-21T14:13:57.618Z,8.93
2023-02-21T14:16:34.525Z,8.10
2023-02-21T14:19:10.331Z,8.38
2023-02-21T14:21:44.865Z,8.60
2023-02-21T14:24:39.511Z,8.27
2023-02-21T14:27:12.566Z,9.10
2023-02-21T14:30:12.274Z,8.80
2023-02-21T14:32:48.153Z,11.05
2023-02-21T14:35:20.669Z,9.82
2023-02-21T14:38:04.332Z,11.18
2023-02-21T14:41:01.284Z,10.70
2023-02-21T14:43:45.653Z,11.40
2023-02-21T14:46:31.145Z,10.35
2023-02-21T14:49:35.114Z,10.68
2023-02-21T14:52:30.707Z,10.73
2023-02-21T14:55:29.109Z,11.30
2023-02-21T14:58:12.324Z,12.17
2023-02-21T15:00:56.497Z,11.30
2023-02-21T15:03:28.834Z,11.35
2023-02-21T15:06:07.188Z,12.23
2023-02-21T15:08:49.868Z,12.02
2023-02-21T15:11:33.566Z,12.87
2023-02-21T15:14:12.939Z,12.02
2023-02-21T15:16:46.115Z,11.30
2023-02-21T15:19:39.723Z,11.35
2023-02-21T15:22:25.791Z,10.60
2023-02-21T15:25:08.039Z,9.83
2023-02-21T15:27:58.635Z,10.40
2023-02-21T15:30:38.143Z,9.63
2023-02-21T15:33:15.176Z,8.63
2023-02-21T15:35:51.053Z,8.60
2023-02-21T15:38:23.613Z,8.87
2023-02-21T15:40:53.932Z,8.02
2023-02-21T15:43:43.494Z,7.88
2023-02-21T15:46:16.662Z,7.13
2023-02-21T15:48:43.728Z,7.55
2023-02-21T15:51:13.095Z,7.20
2023-02-21T15:53:40.262Z,6.63
2023-02-21T15:56:36.341Z,7.07
2023-02-21T15:59:17.953Z,6.10
2023-02-21T16:01:45.250Z,6.18
2023-02-21T16:04:21.882Z,5.50
2023-02-21T16:06:56.607Z,5.78
2023-02-21T16:09:30.226Z,6.25
2023-02-21T16:12:05.644Z,6.03
2023-02-21T16:14:33.378Z,5.72
2023-02-21T16:17:08.546Z,5.90
2023-02-21T16:19:36.555Z,6.40
2023-02-21T16:22:28.218Z,6.07
2023-02-21T16:25:19.043Z,6.53
2023-02-21T16:27:50.032Z,6.00
2023-02-21T16:30:29.320Z,5.80
2023-02-21T16:33:02.180Z,6.05
2023-02-21T16:35:29.875Z,5.90
2023-02-21T16:37:58.922Z,6.57
2023-02-21T16:40:28.696Z,5.75
2023-02-21T16:42:57.174Z,6.13
2023-02-21T16:45:24.504Z,6.57
2023-02-21T16:47:57.512Z,6.82
2023-02-21T16:50:33.769Z,6.63
2023-02-21T16:53:01.231Z,7.80
2023-02-21T16:55:28.924Z,7.10
2023-02-21T16:58:16.030Z,6.50
2023-02-21T17:00:42.747Z,7.45
2023-02-21T17:03:09.479Z,6.57
2023-02-21T17:05:36.254Z,7.38
2023-02-21T17:08:03.278Z,7.50
2023-02-21T17:10:32.626Z,7.85
2023-02-21T17:13:01.435Z,6.90
2023-02-21T17:15:28.208Z,7.45
2023-02-21T17:17:55.289Z,8.05
2023-02-21T17:20:23.782Z,8.40
2023-02-21T17:22:51.888Z,8.23
2023-02-21T17:25:19.769Z,8.27
2023-02-21T17:27:46.628Z,7.57
2023-02-21T17:30:14.575Z,9.15
2023-02-21T17:32:41.439Z,8.17
2023-02-21T17:35:08.589Z,8.32
2023-02-21T17:37:35.352Z,8.43
2023-02-21T17:40:02.596Z,8.32
2023-02-21T17:42:29.302Z,8.02
2023-02-21T17:44:57.535Z,7.93
2023-02-21T17:47:24.338Z,8.07
2023-02-21T17:49:54.490Z,8.45
2023-02-21T17:52:21.797Z,8.75
2023-02-21T17:54:48.585Z,8.05
2023-02-21T17:57:15.330Z,8.87
2023-02-21T17:59:42.164Z,8.00
2023-02-21T18:02:09.085Z,9.90
2023-02-21T18:04:36.046Z,9.95
2023-02-21T18:07:03.117Z,8.60
2023-02-21T18:09:30.497Z,9.13
2023-02-21T18:11:58.379Z,9.27
2023-02-21T18:14:26.783Z,9.35
2023-02-21T18:16:56.334Z,9.63
2023-02-21T18:19:24.060Z,8.60
2023-02-21T18:21:51.148Z,9.37
2023-02-21T18:24:19.186Z,10.02
2023-02-21T18:26:46.782Z,10.75
2023-02-21T18:29:14.063Z,11.35
2023-02-21T18:31:40.865Z,9.45
2023-02-21T18:34:07.761Z,10.90
2023-02-21T18:36:35.641Z,9.60
2023-02-21T18:39:02.716Z,10.13
2023-02-21T18:41:29.449Z,11.02
2023-02-21T18:43:56.196Z,11.63
2023-02-21T18:46:24.103Z,11.83
2023-02-21T18:48:51.295Z,12.07
2023-02-21T18:51:20.052Z,11.25
2023-02-21T18:53:48.635Z,10.88
2023-02-21T18:56:19.284Z,11.15
2023-02-21T18:58:47.982Z,12.63
2023-02-21T19:01:16.939Z,11.98
2023-02-21T19:03:44.623Z,11.93
2023-02-21T19:06:13.679Z,12.18
2023-02-21T19:08:40.472Z,12.20
2023-02-21T19:11:07.931Z,12.00
2023-02-21T19:13:34.720Z,11.50
2023-02-21T19:16:01.662Z,11.55
2023-02-21T19:18:30.582Z,11.93
2023-02-21T19:20:58.086Z,12.10
2023-02-21T19:23:27.223Z,11.77
2023-02-21T19:25:55.367Z,11.80
2023-02-21T19:28:24.012Z,11.55
2023-02-21T19:30:51.000Z,11.27
2023-02-21T19:33:17.794Z,11.60
2023-02-21T19:35:45.706Z,11.20
2023-02-21T19:38:12.452Z,26.40
2023-02-21T19:40:39.207Z,17.95
2023-02-21T19:43:06.475Z,14.30
2023-02-21T19:45:33.520Z,11.15
2023-02-21T19:48:00.302Z,11.60
2023-02-21T19:50:27.180Z,11.05
2023-02-21T19:53:01.199Z,11.52
2023-02-21T19:55:30.221Z,12.10
2023-02-21T19:57:57.122Z,12.50
2023-02-21T20:00:27.075Z,13.83
2023-02-21T20:02:54.125Z,13.52
2023-02-21T20:05:20.989Z,14.32
2023-02-21T20:07:47.719Z,13.13
2023-02-21T20:10:16.618Z,13.73
2023-02-21T20:12:44.583Z,13.23
2023-02-21T20:15:11.659Z,13.07
2023-02-21T20:17:39.246Z,13.82
2023-02-21T20:20:07.554Z,15.30
2023-02-21T20:22:34.340Z,12.98
2023-02-21T20:25:01.657Z,15.63
2023-02-21T20:27:29.232Z,14.57
2023-02-21T20:29:56.798Z,15.25
2023-02-21T20:32:23.863Z,15.38
2023-02-21T20:34:54.255Z,15.18
2023-02-21T20:37:21.566Z,14.00
2023-02-21T20:39:49.713Z,17.95
2023-02-21T20:42:16.539Z,16.65
2023-02-21T20:44:44.318Z,14.68
2023-02-21T20:47:11.128Z,13.82
2023-02-21T20:49:39.135Z,13.93
2023-02-21T20:52:06.138Z,15.02
2023-02-21T20:54:33.160Z,15.60
2023-02-21T20:57:00.284Z,16.15
2023-02-21T20:59:31.171Z,18.27
2023-02-21T21:01:58.493Z,16.43
2023-02-21T21:04:29.208Z,14.18
2023-02-21T21:07:02.575Z,15.27
2023-02-21T21:09:33.955Z,15.38
2023-02-21T21:12:02.671Z,16.60
2023-02-21T21:14:31.561Z,17.97
2023-02-21T21:16:59.784Z,16.85
2023-02-21T21:19:33.081Z,17.50
2023-02-21T21:22:08.988Z,16.25
2023-02-21T21:24:37.213Z,17.92
2023-02-21T21:27:08.756Z,17.47
2023-02-21T21:29:43.054Z,18.60
2023-02-21T21:32:11.944Z,19.35
2023-02-21T21:34:42.973Z,16.88
2023-02-21T21:37:09.895Z,18.30
2023-02-21T21:39:37.542Z,19.00
2023-02-21T21:42:09.571Z,19.90
2023-02-21T21:44:39.775Z,20.02
2023-02-21T21:47:07.826Z,19.58
2023-02-21T21:49:36.781Z,18.95
2023-02-21T21:52:04.823Z,19.93
2023-02-21T21:54:36.014Z,19.05
2023-02-21T21:57:05.261Z,15.77
2023-02-21T21:59:32.650Z,18.00
2023-02-21T22:01:59.831Z,17.35
2023-02-21T22:04:26.909Z,18.50
2023-02-21T22:06:55.190Z,16.83
2023-02-21T22:09:22.338Z,16.63
2023-02-21T22:11:50.135Z,18.10
2023-02-21T22:14:18.691Z,15.93
2023-02-21T22:16:47.902Z,17.03
2023-02-21T22:19:16.620Z,18.67
2023-02-21T22:21:44.048Z,18.67
2023-02-21T22:24:15.047Z,17.08
2023-02-21T22:26:44.831Z,16.25
2023-02-21T22:29:15.397Z,17.93
2023-02-21T22:31:43.803Z,14.27
2023-02-21T22:34:10.868Z,16.58
2023-02-21T22:36:37.660Z,16.92
2023-02-21T22:39:10.916Z,16.77
2023-02-21T22:41:37.665Z,15.97
2023-02-21T22:44:04.432Z,16.70
2023-02-21T22:46:43.172Z,16.48
2023-02-21T22:49:10.568Z,17.00
2023-02-21T22:51:37.479Z,17.30
2023-02-21T22:54:05.590Z,17.87
2023-02-21T22:56:38.355Z,17.08
2023-02-21T22:59:09.056Z,17.25
2023-02-21T23:01:37.955Z,14.85
2023-02-21T23:04:25.303Z,15.10
2023-02-21T23:06:54.506Z,14.67
2023-02-21T23:09:21.877Z,15.35
2023-02-21T23:11:50.652Z,15.90
2023-02-21T23:14:18.730Z,16.25
2023-02-21T23:16:45.779Z,15.35
2023-02-21T23:19:12.759Z,16.47
2023-02-21T23:21:48.707Z,16.85
2023-02-21T23:24:17.279Z,17.30
2023-02-21T23:26:46.584Z,17.35
2023-02-21T23:29:15.441Z,15.77
2023-02-21T23:31:42.499Z,15.77
2023-02-21T23:34:10.361Z,15.20
2023-02-21T23:36:39.554Z,15.27
2023-02-21T23:39:10.628Z,14.70
2023-02-21T23:41:40.768Z,15.23
2023-02-21T23:44:13.492Z,15.13
2023-02-21T23:46:42.607Z,16.02
2023-02-21T23:49:15.827Z,14.27
2023-02-21T23:51:43.798Z,14.45
2023-02-21T23:54:13.376Z,13.32
2023-02-21T23:56:40.392Z,12.33
2023-02-21T23:59:07.720Z,13.00
